createdAt,value
2019-03-24T00:00:54.986Z,19.75
2019-03-24T00:03:24.204Z,19.77
2019-03-24T00:05:53.421Z,17.85
2019-03-24T00:08:22.625Z,15.78
2019-03-24T00:10:52.174Z,23.05
2019-03-24T00:13:21.924Z,17.10
2019-03-24T00:15:51.464Z,21.25
2019-03-24T00:18:20.681Z,22.02
2019-03-24T00:20:50.147Z,16.00
2019-03-24T00:23:19.361Z,25.23
2019-03-24T00:25:48.600Z,18.55
2019-03-24T00:28:18.088Z,21.23
2019-03-24T00:30:47.316Z,23.70
2019-03-24T00:33:16.543Z,23.20
2019-03-24T00:35:46.280Z,22.48
2019-03-24T00:38:15.556Z,22.60
2019-03-24T00:40:44.903Z,22.48
2019-03-24T00:43:14.119Z,22.32
2019-03-24T00:45:43.337Z,23.12
2019-03-24T00:48:12.808Z,20.02
2019-03-24T00:50:42.035Z,16.10
2019-03-24T00:53:11.321Z,20.35
2019-03-24T00:55:40.548Z,21.68
2019-03-24T00:58:10.009Z,23.80
2019-03-24T01:00:47.301Z,24.00
2019-03-24T01:03:18.073Z,26.77
2019-03-24T01:05:47.915Z,30.27
2019-03-24T01:08:17.296Z,26.23
2019-03-24T01:10:46.831Z,18.40
2019-03-24T01:13:22.873Z,23.32
2019-03-24T01:15:52.353Z,25.32
2019-03-24T01:18:21.920Z,26.73
2019-03-24T01:20:51.120Z,24.07
2019-03-24T01:23:20.829Z,20.85
2019-03-24T01:25:50.024Z,25.97
2019-03-24T01:28:19.241Z,25.27
2019-03-24T01:30:48.795Z,19.45
2019-03-24T01:33:18.029Z,20.77
2019-03-24T01:35:47.490Z,21.68
2019-03-24T01:38:16.776Z,23.38
2019-03-24T01:40:45.989Z,22.55
2019-03-24T01:43:15.198Z,23.38
2019-03-24T01:45:44.914Z,24.75
2019-03-24T01:48:14.134Z,21.15
2019-03-24T01:50:43.421Z,29.67
2019-03-24T01:53:12.630Z,22.52
2019-03-24T01:55:41.921Z,23.22
2019-03-24T01:58:11.350Z,17.48
2019-03-24T02:00:40.568Z,24.90
2019-03-24T02:03:09.764Z,21.93
2019-03-24T02:05:38.977Z,25.37
2019-03-24T02:08:10.868Z,24.95
2019-03-24T02:10:40.151Z,20.12
2019-03-24T02:13:09.424Z,23.40
2019-03-24T02:15:38.733Z,24.20
2019-03-24T02:18:08.019Z,22.80
2019-03-24T02:20:37.228Z,21.87
2019-03-24T02:23:06.756Z,23.42
2019-03-24T02:25:35.988Z,24.27
2019-03-24T02:28:05.463Z,20.15
2019-03-24T02:30:34.678Z,26.48
2019-03-24T02:33:04.372Z,36.17
2019-03-24T02:35:33.669Z,19.35
2019-03-24T02:38:03.447Z,27.75
2019-03-24T02:40:33.154Z,21.87
2019-03-24T02:43:02.366Z,21.00
2019-03-24T02:45:31.733Z,26.48
2019-03-24T02:48:01.052Z,23.27
2019-03-24T02:50:30.589Z,22.77
2019-03-24T02:52:59.771Z,28.47
2019-03-24T02:55:29.091Z,25.88
2019-03-24T02:57:58.291Z,27.35
2019-03-24T03:00:27.566Z,24.95
2019-03-24T03:02:56.769Z,27.17
2019-03-24T03:05:26.239Z,30.80
2019-03-24T03:07:55.689Z,22.13
2019-03-24T03:10:25.050Z,28.40
2019-03-24T03:12:54.729Z,21.73
2019-03-24T03:15:24.039Z,26.87
2019-03-24T03:17:53.233Z,24.37
2019-03-24T03:20:22.811Z,25.05
2019-03-24T03:22:52.277Z,21.85
2019-03-24T03:25:21.794Z,22.32
2019-03-24T03:27:51.255Z,20.80
2019-03-24T03:30:20.949Z,30.88
2019-03-24T03:32:50.665Z,23.12
2019-03-24T03:35:20.140Z,30.23
2019-03-24T03:37:49.617Z,25.20
2019-03-24T03:40:21.312Z,22.65
2019-03-24T03:42:50.528Z,28.05
2019-03-24T03:45:27.437Z,31.65
2019-03-24T03:47:56.866Z,25.12
2019-03-24T03:50:26.077Z,23.15
2019-03-24T03:52:55.363Z,23.70
2019-03-24T03:55:24.683Z,26.27
2019-03-24T03:57:53.913Z,28.65
2019-03-24T04:00:32.509Z,22.42
2019-03-24T04:03:02.065Z,30.88
2019-03-24T04:05:31.553Z,25.43
2019-03-24T04:08:01.143Z,23.07
2019-03-24T04:10:30.346Z,24.30
2019-03-24T04:12:59.558Z,23.00
2019-03-24T04:15:28.777Z,18.60
2019-03-24T04:17:57.996Z,25.70
2019-03-24T04:20:27.457Z,30.48
2019-03-24T04:22:56.686Z,29.87
2019-03-24T04:25:26.172Z,26.35
2019-03-24T04:27:55.392Z,27.15
2019-03-24T04:30:24.871Z,29.82
2019-03-24T04:32:54.085Z,29.75
2019-03-24T04:35:23.284Z,25.97
2019-03-24T04:37:53.783Z,29.42
2019-03-24T04:40:22.993Z,33.33
2019-03-24T04:42:52.221Z,21.82
2019-03-24T04:45:21.685Z,31.87
2019-03-24T04:47:51.178Z,30.80
2019-03-24T04:50:20.447Z,26.55
2019-03-24T04:52:49.651Z,31.05
2019-03-24T04:55:18.858Z,24.18
2019-03-24T04:57:48.067Z,41.92
2019-03-24T05:00:19.189Z,32.93
2019-03-24T05:02:48.397Z,35.37
2019-03-24T05:05:17.618Z,37.13
2019-03-24T05:07:47.001Z,38.23
2019-03-24T05:10:26.883Z,48.25
2019-03-24T05:12:56.125Z,46.60
2019-03-24T05:15:25.430Z,39.58
2019-03-24T05:17:54.661Z,48.80
2019-03-24T05:20:24.144Z,44.35
2019-03-24T05:22:53.675Z,44.63
2019-03-24T05:25:23.773Z,48.87
2019-03-24T05:27:53.077Z,46.85
2019-03-24T05:30:22.523Z,50.35
2019-03-24T05:32:52.413Z,42.70
2019-03-24T05:35:21.635Z,45.70
2019-03-24T05:37:50.871Z,52.23
2019-03-24T05:40:20.352Z,44.15
2019-03-24T05:42:49.575Z,40.05
2019-03-24T05:45:18.805Z,43.98
2019-03-24T05:47:48.030Z,43.92
2019-03-24T05:50:17.512Z,44.05
2019-03-24T05:52:46.996Z,51.63
2019-03-24T05:55:16.212Z,47.03
2019-03-24T05:57:45.479Z,48.98
2019-03-24T06:00:14.879Z,46.70
2019-03-24T06:02:44.122Z,50.58
2019-03-24T06:05:12.884Z,46.63
2019-03-24T06:07:42.146Z,47.40
2019-03-24T06:10:11.668Z,46.15
2019-03-24T06:12:40.905Z,38.90
2019-03-24T06:15:10.994Z,37.42
2019-03-24T06:17:47.764Z,44.13
2019-03-24T06:20:11.203Z,37.63
2019-03-24T06:22:40.822Z,43.20
2019-03-24T06:25:10.294Z,45.00
2019-03-24T06:27:39.584Z,37.15
2019-03-24T06:30:09.648Z,53.05
2019-03-24T06:32:39.132Z,44.35
2019-03-24T06:35:09.162Z,42.05
2019-03-24T06:37:38.427Z,42.58
2019-03-24T06:40:08.949Z,51.25
2019-03-24T06:42:38.851Z,50.40
2019-03-24T06:45:08.937Z,56.58
2019-03-24T06:47:38.659Z,51.77
2019-03-24T06:50:08.174Z,41.88
2019-03-24T06:52:37.700Z,43.28
2019-03-24T06:55:07.709Z,44.60
2019-03-24T06:57:37.027Z,42.17
2019-03-24T07:00:07.435Z,35.40
2019-03-24T07:02:36.678Z,40.35
2019-03-24T07:05:06.184Z,39.90
2019-03-24T07:07:35.846Z,39.48
2019-03-24T07:10:05.458Z,47.55
2019-03-24T07:12:35.171Z,54.93
2019-03-24T07:15:04.590Z,44.58
2019-03-24T07:17:34.338Z,41.92
2019-03-24T07:20:03.743Z,42.35
2019-03-24T07:22:33.251Z,53.55
2019-03-24T07:25:02.493Z,38.98
2019-03-24T07:27:31.706Z,43.33
2019-03-24T07:30:01.204Z,40.63
2019-03-24T07:32:30.445Z,44.20
2019-03-24T07:35:00.024Z,46.63
2019-03-24T07:37:29.305Z,42.67
2019-03-24T07:39:58.555Z,43.00
2019-03-24T07:42:28.160Z,47.55
2019-03-24T07:44:57.733Z,40.90
2019-03-24T07:47:27.223Z,42.50
2019-03-24T07:49:56.459Z,38.23
2019-03-24T07:52:28.475Z,47.15
2019-03-24T07:57:25.744Z,47.08
2019-03-24T07:59:55.225Z,53.02
2019-03-24T08:02:24.474Z,57.65
2019-03-24T08:04:53.928Z,50.00
2019-03-24T08:07:23.436Z,38.98
2019-03-24T08:09:52.657Z,48.15
2019-03-24T08:12:22.158Z,53.92
2019-03-24T08:14:52.134Z,47.40
2019-03-24T08:17:21.373Z,43.65
2019-03-24T08:19:51.088Z,51.45
2019-03-24T08:22:21.862Z,43.65
2019-03-24T08:24:51.168Z,47.58
2019-03-24T08:27:20.988Z,53.45
2019-03-24T08:29:51.085Z,50.38
2019-03-24T08:32:21.702Z,47.10
2019-03-24T08:34:51.053Z,43.38
2019-03-24T08:37:20.803Z,40.25
2019-03-24T08:39:50.375Z,42.05
2019-03-24T08:42:19.638Z,44.30
2019-03-24T08:44:48.938Z,43.92
2019-03-24T08:47:18.210Z,39.03
2019-03-24T08:49:47.494Z,40.92
2019-03-24T08:52:16.761Z,28.17
2019-03-24T08:54:45.991Z,28.05
2019-03-24T08:57:15.477Z,39.03
2019-03-24T08:59:44.737Z,43.75
2019-03-24T09:02:14.000Z,38.60
2019-03-24T09:04:44.221Z,42.15
2019-03-24T09:07:13.459Z,38.33
2019-03-24T09:09:42.701Z,53.42
2019-03-24T09:12:12.188Z,47.78
2019-03-24T09:14:41.424Z,49.20
2019-03-24T09:17:10.908Z,44.30
2019-03-24T09:19:40.401Z,54.80
2019-03-24T09:22:09.894Z,46.05
2019-03-24T09:24:39.239Z,39.55
2019-03-24T09:27:08.853Z,41.13
2019-03-24T09:29:38.373Z,39.90
2019-03-24T09:32:08.281Z,42.25
2019-03-24T09:34:37.803Z,37.40
2019-03-24T09:37:07.430Z,39.88
2019-03-24T09:39:36.912Z,37.75
2019-03-24T09:42:06.216Z,44.85
2019-03-24T09:44:35.437Z,43.25
2019-03-24T09:47:04.999Z,37.78
2019-03-24T09:49:34.252Z,37.95
2019-03-24T09:52:03.723Z,37.80
2019-03-24T09:54:33.166Z,31.25
2019-03-24T09:57:02.492Z,41.77
2019-03-24T09:59:32.299Z,34.18
2019-03-24T10:02:02.030Z,35.80
2019-03-24T10:04:31.769Z,39.98
2019-03-24T10:07:00.992Z,32.20
2019-03-24T10:09:30.464Z,25.88
2019-03-24T10:11:59.701Z,29.35
2019-03-24T10:14:29.202Z,31.05
2019-03-24T10:16:58.422Z,30.00
2019-03-24T10:19:27.649Z,24.57
2019-03-24T10:21:57.100Z,25.15
2019-03-24T10:24:29.372Z,23.22
2019-03-24T10:26:58.564Z,24.60
2019-03-24T10:29:28.091Z,23.20
2019-03-24T10:31:57.393Z,20.65
2019-03-24T10:34:26.651Z,23.98
2019-03-24T10:36:56.115Z,19.07
2019-03-24T10:39:25.347Z,23.65
2019-03-24T10:41:55.620Z,18.07
2019-03-24T10:44:24.835Z,18.62
2019-03-24T10:46:54.112Z,19.82
2019-03-24T10:49:25.066Z,23.57
2019-03-24T10:51:54.611Z,18.98
2019-03-24T10:54:24.333Z,18.80
2019-03-24T10:56:53.782Z,16.02
2019-03-24T10:59:23.053Z,19.85
2019-03-24T11:01:52.276Z,15.30
2019-03-24T11:04:21.777Z,17.07
2019-03-24T11:06:54.020Z,14.75
2019-03-24T11:09:23.300Z,13.90
2019-03-24T11:11:52.771Z,10.50
2019-03-24T11:14:22.048Z,12.55
2019-03-24T11:16:51.516Z,13.10
2019-03-24T11:19:21.287Z,11.00
2019-03-24T11:21:50.786Z,13.72
2019-03-24T11:24:20.032Z,13.80
2019-03-24T11:26:49.246Z,13.53
2019-03-24T11:29:19.013Z,16.73
2019-03-24T11:31:48.511Z,14.55
2019-03-24T11:34:18.257Z,13.05
2019-03-24T11:36:48.305Z,14.50
2019-03-24T11:39:17.800Z,14.35
2019-03-24T11:41:47.277Z,16.32
2019-03-24T11:44:16.541Z,10.72
2019-03-24T11:46:46.082Z,10.63
2019-03-24T11:49:19.654Z,12.95
2019-03-24T11:51:48.873Z,14.55
2019-03-24T11:54:18.117Z,11.97
2019-03-24T11:56:47.428Z,14.90
2019-03-24T11:59:16.951Z,10.03
2019-03-24T12:01:46.414Z,10.65
2019-03-24T12:04:15.625Z,13.18
2019-03-24T12:06:45.137Z,14.33
2019-03-24T12:09:14.619Z,10.68
2019-03-24T12:11:47.273Z,10.28
2019-03-24T12:14:17.047Z,8.75
2019-03-24T12:16:46.561Z,13.43
2019-03-24T12:19:16.223Z,14.60
2019-03-24T12:21:45.471Z,12.33
2019-03-24T12:24:14.998Z,13.83
2019-03-24T12:26:44.237Z,13.05
2019-03-24T12:29:13.984Z,15.72
2019-03-24T12:31:43.451Z,12.45
2019-03-24T12:34:12.904Z,12.78
2019-03-24T12:36:42.149Z,18.30
2019-03-24T12:39:11.382Z,20.57
2019-03-24T12:41:40.899Z,13.32
2019-03-24T12:44:10.133Z,14.60
2019-03-24T12:46:39.361Z,11.38
2019-03-24T12:49:09.582Z,8.20
2019-03-24T12:51:39.517Z,9.73
2019-03-24T12:54:09.057Z,9.50
2019-03-24T12:56:38.275Z,11.60
2019-03-24T12:59:07.501Z,11.65
2019-03-24T13:01:37.278Z,10.03
2019-03-24T13:04:06.764Z,10.90
2019-03-24T13:06:36.027Z,17.80
2019-03-24T13:09:07.179Z,13.05
2019-03-24T13:11:36.676Z,14.33
2019-03-24T13:14:06.190Z,14.50
2019-03-24T13:16:36.385Z,11.00
2019-03-24T13:19:05.853Z,15.78
2019-03-24T13:21:35.627Z,10.70
2019-03-24T13:24:04.983Z,10.48
2019-03-24T13:26:34.481Z,8.10
2019-03-24T13:29:04.191Z,11.33
2019-03-24T13:31:33.449Z,11.68
2019-03-24T13:34:02.966Z,10.15
2019-03-24T13:36:32.460Z,15.10
2019-03-24T13:39:01.694Z,13.35
2019-03-24T13:41:31.183Z,12.63
2019-03-24T13:44:00.469Z,12.10
2019-03-24T13:46:29.679Z,15.80
2019-03-24T13:48:59.309Z,16.48
2019-03-24T13:51:28.555Z,12.80
2019-03-24T13:53:57.757Z,14.53
2019-03-24T13:56:26.990Z,22.37
2019-03-24T13:58:56.221Z,16.25
2019-03-24T14:01:25.701Z,18.00
2019-03-24T14:03:55.230Z,19.23
2019-03-24T14:06:24.729Z,17.35
2019-03-24T14:08:58.521Z,21.25
2019-03-24T14:11:27.767Z,24.25
2019-03-24T14:13:57.276Z,19.42
2019-03-24T14:16:26.625Z,20.20
2019-03-24T14:18:56.193Z,18.75
2019-03-24T14:21:25.728Z,19.95
2019-03-24T14:23:54.962Z,15.93
2019-03-24T14:26:24.295Z,16.17
2019-03-24T14:28:53.533Z,15.72
2019-03-24T14:31:22.838Z,14.63
2019-03-24T14:33:52.078Z,12.70
2019-03-24T14:36:29.404Z,16.37
2019-03-24T14:38:58.852Z,13.32
2019-03-24T14:41:28.382Z,13.22
2019-03-24T14:43:58.118Z,10.55
2019-03-24T14:46:27.373Z,9.40
2019-03-24T14:48:56.860Z,8.28
2019-03-24T14:51:26.143Z,8.43
2019-03-24T14:53:55.665Z,4.70
2019-03-24T14:56:25.890Z,8.45
2019-03-24T14:58:55.171Z,3.65
2019-03-24T15:01:24.614Z,4.53
2019-03-24T15:03:53.885Z,5.17
2019-03-24T15:06:23.420Z,6.15
2019-03-24T15:08:53.165Z,7.15
2019-03-24T15:11:22.707Z,10.30
2019-03-24T15:13:52.318Z,9.98
2019-03-24T15:16:21.866Z,9.98
2019-03-24T15:18:51.167Z,10.28
2019-03-24T15:21:20.639Z,10.18
2019-03-24T15:23:50.131Z,11.30
2019-03-24T15:26:19.438Z,10.13
2019-03-24T15:28:48.945Z,12.28
2019-03-24T15:31:18.541Z,10.50
2019-03-24T15:33:48.043Z,11.90
2019-03-24T15:36:17.323Z,10.18
2019-03-24T15:38:46.891Z,12.18
2019-03-24T15:41:18.323Z,10.18
2019-03-24T15:43:55.027Z,12.33
2019-03-24T15:46:24.765Z,10.50
2019-03-24T15:48:54.043Z,7.15
2019-03-24T15:51:24.091Z,9.70
2019-03-24T15:53:53.569Z,8.45
2019-03-24T15:56:23.340Z,7.78
2019-03-24T15:58:52.592Z,7.40
2019-03-24T16:01:23.028Z,8.35
2019-03-24T16:03:52.527Z,6.58
2019-03-24T16:06:21.874Z,8.50
2019-03-24T16:08:51.150Z,6.67
2019-03-24T16:11:20.494Z,6.50
2019-03-24T16:13:50.250Z,3.45
2019-03-24T16:16:19.819Z,5.90
2019-03-24T16:18:49.174Z,4.53
2019-03-24T16:21:27.410Z,8.28
2019-03-24T16:23:49.355Z,6.30
2019-03-24T16:26:18.845Z,5.62
2019-03-24T16:28:48.592Z,6.90
2019-03-24T16:31:18.104Z,5.33
2019-03-24T16:33:47.971Z,7.65
2019-03-24T16:36:17.485Z,8.85
2019-03-24T16:38:49.184Z,9.38
2019-03-24T16:41:20.413Z,8.80
2019-03-24T16:43:50.031Z,6.97
2019-03-24T16:46:19.343Z,4.78
2019-03-24T16:48:51.650Z,6.83
2019-03-24T16:51:20.917Z,7.33
2019-03-24T16:53:50.262Z,6.35
2019-03-24T16:56:19.834Z,9.38
2019-03-24T16:58:49.145Z,7.97
2019-03-24T17:01:18.410Z,12.13
2019-03-24T17:03:47.703Z,5.90
2019-03-24T17:06:17.218Z,8.95
2019-03-24T17:08:46.539Z,8.03
2019-03-24T17:11:15.803Z,8.63
2019-03-24T17:13:45.047Z,6.05
2019-03-24T17:16:14.620Z,5.28
2019-03-24T17:18:43.849Z,9.38
2019-03-24T17:21:13.162Z,5.45
2019-03-24T17:23:42.520Z,8.83
2019-03-24T17:26:12.062Z,6.47
2019-03-24T17:28:41.606Z,5.80
2019-03-24T17:31:10.865Z,7.72
2019-03-24T17:33:40.383Z,9.40
2019-03-24T17:36:09.706Z,5.85
2019-03-24T17:38:39.466Z,7.30
2019-03-24T17:41:09.324Z,6.55
2019-03-24T17:43:38.571Z,7.90
2019-03-24T17:46:08.105Z,5.00
2019-03-24T17:48:37.764Z,8.23
2019-03-24T17:51:07.002Z,7.80
2019-03-24T17:53:36.235Z,5.25
2019-03-24T17:56:05.912Z,6.90
2019-03-24T17:58:35.220Z,7.87
2019-03-24T18:01:04.524Z,6.85
2019-03-24T18:03:34.112Z,11.30
2019-03-24T18:06:03.598Z,14.23
2019-03-24T18:08:33.141Z,20.75
2019-03-24T18:11:02.451Z,18.52
2019-03-24T18:13:31.862Z,19.87
2019-03-24T18:16:01.359Z,20.68
2019-03-24T18:18:31.054Z,14.15
2019-03-24T18:21:00.557Z,11.90
2019-03-24T18:23:29.986Z,9.35
2019-03-24T18:25:59.699Z,14.55
2019-03-24T18:28:28.921Z,17.35
2019-03-24T18:30:58.176Z,18.92
2019-03-24T18:33:27.521Z,13.43
2019-03-24T18:35:56.822Z,18.12
2019-03-24T18:38:26.362Z,22.93
2019-03-24T18:40:55.614Z,25.70
2019-03-24T18:43:24.842Z,28.87
2019-03-24T18:45:54.317Z,24.02
2019-03-24T18:48:23.672Z,19.62
2019-03-24T18:50:53.169Z,19.92
2019-03-24T18:53:22.653Z,21.00
2019-03-24T18:55:52.179Z,15.80
2019-03-24T18:58:21.410Z,18.40
2019-03-24T19:00:50.639Z,18.67
2019-03-24T19:03:20.385Z,20.12
2019-03-24T19:05:49.706Z,13.08
2019-03-24T19:08:19.219Z,21.25
2019-03-24T19:10:48.486Z,16.70
2019-03-24T19:13:17.740Z,18.07
2019-03-24T19:15:46.979Z,19.00
2019-03-24T19:18:16.209Z,16.95
2019-03-24T19:20:45.621Z,18.90
2019-03-24T19:23:14.790Z,16.25
2019-03-24T19:25:44.315Z,16.17
2019-03-24T19:28:13.557Z,15.05
2019-03-24T19:30:42.857Z,18.40
2019-03-24T19:33:12.377Z,21.73
2019-03-24T19:35:41.831Z,15.68
2019-03-24T19:38:11.246Z,18.02
2019-03-24T19:40:40.521Z,13.25
2019-03-24T19:43:09.846Z,10.63
2019-03-24T19:45:39.083Z,15.55
2019-03-24T19:48:08.668Z,9.58
2019-03-24T19:50:38.241Z,15.18
2019-03-24T19:53:07.732Z,15.48
2019-03-24T19:55:37.210Z,20.08
2019-03-24T19:58:06.547Z,15.80
2019-03-24T20:00:36.121Z,17.35
2019-03-24T20:03:06.010Z,18.50
2019-03-24T20:05:36.217Z,19.55
2019-03-24T20:08:07.518Z,18.92
2019-03-24T20:10:36.809Z,13.55
2019-03-24T20:13:06.171Z,23.98
2019-03-24T20:15:35.481Z,23.52
2019-03-24T20:18:05.091Z,22.07
2019-03-24T20:20:34.374Z,18.35
2019-03-24T20:23:03.698Z,13.30
2019-03-24T20:25:33.046Z,14.95
2019-03-24T20:28:02.436Z,15.48
2019-03-24T20:30:32.741Z,19.25
2019-03-24T20:33:02.048Z,18.90
2019-03-24T20:35:31.568Z,17.07
2019-03-24T20:38:01.127Z,18.07
2019-03-24T20:40:30.368Z,9.63
2019-03-24T20:42:59.660Z,14.20
2019-03-24T20:45:28.903Z,14.85
2019-03-24T20:47:58.176Z,13.13
2019-03-24T20:50:27.681Z,15.88
2019-03-24T20:53:04.163Z,18.37
2019-03-24T20:55:28.449Z,22.73
2019-03-24T20:57:59.247Z,29.57
2019-03-24T21:00:55.063Z,21.73
2019-03-24T21:03:24.333Z,22.35
2019-03-24T21:05:53.887Z,36.42
2019-03-24T21:08:23.139Z,30.88
2019-03-24T21:10:52.568Z,44.38
2019-03-24T21:13:22.136Z,42.05
2019-03-24T21:15:51.428Z,23.73
2019-03-24T21:18:20.991Z,13.50
2019-03-24T21:20:50.627Z,20.35
2019-03-24T21:23:29.052Z,22.87
2019-03-24T21:25:52.129Z,26.45
2019-03-24T21:28:21.375Z,22.25
2019-03-24T21:30:50.870Z,19.27
2019-03-24T21:33:20.434Z,15.85
2019-03-24T21:35:49.988Z,13.10
2019-03-24T21:38:19.759Z,11.85
2019-03-24T21:40:49.301Z,16.45
2019-03-24T21:43:18.555Z,15.58
2019-03-24T21:45:49.245Z,15.13
2019-03-24T21:48:41.102Z,13.40
2019-03-24T21:51:10.375Z,17.77
2019-03-24T21:53:41.057Z,17.27
2019-03-24T21:56:10.360Z,16.32
2019-03-24T21:58:40.930Z,15.10
2019-03-24T22:01:10.288Z,17.50
2019-03-24T22:03:39.778Z,13.28
2019-03-24T22:06:09.319Z,10.13
2019-03-24T22:08:39.773Z,13.20
2019-03-24T22:11:09.558Z,18.12
2019-03-24T22:13:49.863Z,20.00
2019-03-24T22:16:19.379Z,17.02
2019-03-24T22:18:49.712Z,17.45
2019-03-24T22:21:19.128Z,15.58
2019-03-24T22:23:52.496Z,18.30
2019-03-24T22:26:20.136Z,21.48
2019-03-24T22:28:50.310Z,23.98
2019-03-24T22:31:20.653Z,17.35
2019-03-24T22:33:50.513Z,17.65
2019-03-24T22:36:20.355Z,19.87
2019-03-24T22:38:50.218Z,13.90
2019-03-24T22:41:19.481Z,18.80
2019-03-24T22:43:49.215Z,14.93
2019-03-24T22:46:18.429Z,16.75
2019-03-24T22:48:48.009Z,19.42
2019-03-24T22:51:17.305Z,16.25
2019-03-24T22:53:46.779Z,11.57
2019-03-24T22:56:16.261Z,13.83
2019-03-24T22:58:45.765Z,18.40
2019-03-24T23:01:35.648Z,22.07
2019-03-24T23:04:05.207Z,14.87
2019-03-24T23:06:34.456Z,11.88
2019-03-24T23:09:06.212Z,13.85
2019-03-24T23:11:35.431Z,13.53
2019-03-24T23:14:04.725Z,16.05
2019-03-24T23:16:34.185Z,15.78
2019-03-24T23:19:03.469Z,18.25
2019-03-24T23:21:32.712Z,15.98
2019-03-24T23:24:14.599Z,12.07
2019-03-24T23:26:34.139Z,11.55
2019-03-24T23:29:03.434Z,10.40
2019-03-24T23:31:34.119Z,14.85
2019-03-24T23:34:04.051Z,11.35
2019-03-24T23:36:33.295Z,19.02
2019-03-24T23:39:02.761Z,11.85
2019-03-24T23:41:31.973Z,18.05
2019-03-24T23:44:03.884Z,15.88
2019-03-24T23:46:32.448Z,20.23
2019-03-24T23:49:02.130Z,12.73
2019-03-24T23:51:31.373Z,17.30
2019-03-24T23:54:00.613Z,15.58
2019-03-24T23:56:29.832Z,14.40
2019-03-24T23:58:59.326Z,15.10
